AirNav   TITAN Aviation Fuels
 
 592 users online  

64FL District VI Heliport
Miami, Florida, USA

GOING TO MIAMI?


FAA INFORMATION EFFECTIVE 17 JUNE 2021

Location

FAA Identifier: 64FL
Lat/Long: 25-46-55.1300N 080-22-39.0800W
25-46.918833N 080-22.651333W
25.7819806,-80.3775222
(estimated)
Elevation: 8 ft. / 2 m (estimated)
From city: 9 miles NE of MIAMI, FL
Time zone: UTC -4 (UTC -5 during Standard Time)
Zip code: 33172

Heliport Operations

Heliport use: Private use. Permission required prior to landing
Activation date: 07/2004
Control tower: no
ARTCC: MIAMI CENTER
FSS: MIAMI FLIGHT SERVICE STATION
Attendance: UNATNDD
Wind indicator: yes
Segmented circle: no

Heliport Communications

WX ASOS at MIA (5 nm E): 119.15 (305-870-0235)
WX ASOS at TMB (9 nm S): 124.0 (305-235-1332)
WX ASOS at OPF (9 nm NE): 125.9 (305-681-4063)
WX ASOS at HWO (15 nm NE): PHONE 954-983-5904
WX AWOS-3 at X51 (19 nm SW): 118.375 (305-247-2791)

Nearby radio navigation aids

VOR radial/distance  VOR name  Freq  Var
DHPr239/1.9DOLPHIN VORTAC113.9004W
VKZr283/12.2VIRGINIA KEY VOR/DME117.1004W
FLLr219/20.9FORT LAUDERDALE VOR/DME114.4006W

Heliport Services

Runway Information

Helipad H1

Dimensions: 20 x 20 ft. / 6 x 6 m
Surface: concrete
Latitude: 25-46.918833N
Longitude: 080-22.651333W
Elevation: 8.0 ft.
Traffic pattern: leftleft

Heliport Ownership and Management from official FAA records

Ownership: Privately-owned
Owner: FLORIDA DOT
1000 NW 111 AVENUE
MIAMI, FL 33172-5800
Phone 305-470-5455
Manager: CINDY CAPDEVILA
1000 NW 111 AVENUE
MIAMI, FL 33172-5800
Phone 305-470-5108

Additional Remarks

FOR CD CTC MIAMI APCH AT 305-869-5432.

Instrument Procedures

There are no published instrument procedures at 64FL.

Some nearby airports with instrument procedures:

KMIA - Miami International Airport (5 nm E)
KTMB - Miami Executive Airport (9 nm S)
KOPF - Miami-Opa Locka Executive Airport (9 nm NE)
KHWO - North Perry Airport (15 nm NE)
KHST - Homestead Air Reserve Base (18 nm S)
X51 - Miami Homestead General Aviation Airport (19 nm SW)
 
Loc | Ops | Rwys | IFR | FBO | Links
Com | Nav | Svcs | Stats | Notes

Reliance Aviation
AirBoss

 
Area around 64FL (District VI Heliport)
 
Road maps at: MapQuest Bing Google
 
Aerial photo
No photo
 
Sectional chart

 
Airport distance calculator
Flying to District VI Heliport? Find the distance to fly.

From to 64FL

Sunrise and sunset
Times for 22-Jun-2021
 Local
(UTC-4)
 Zulu
(UTC)
Morning civil twilight06:0610:06
Sunrise06:3210:32
Sunset20:1500:15
Evening civil twilight20:4100:41

Current date and time
Zulu (UTC)  22-Jun-2021 05:12:34
Local (UTC-4)  22-Jun-2021 01:12:34
 
METAR
KMIA 
3nm E 
220453Z 10006KT 10SM FEW030 BKN120 OVC250 29/25 A3010 RMK AO2 SLP192 T02890250 403330272 $
KTMB 
8nm S 
220453Z AUTO 11005KT 10SM CLR 29/24 A3009 RMK AO2 SLP190 T02890244 403330261
KOPF 
10nm NE 
220453Z AUTO 10005KT 10SM CLR 28/24 A3010 RMK AO2 SLP194 T02830239 403330256
KHWO 
15nm NE 
220453Z AUTO 13005KT 10SM CLR 28/24 A3011 RMK AO2 SLP196 T02830244 403280250
KHST 
19nm S 
220456Z AUTO 09004KT 10SM CLR 28/25 A3008 RMK AO2 SLP189 T02790249 403250262
TAF
KMIA 
3nm E 
220252Z 2203/2306 12005KT P6SM SCT025 BKN100 FM221300 15011KT P6SM SCT030 BKN050 FM230100 13006KT P6SM SCT025 BKN150
KTMB 
8nm S 
220252Z 2203/2224 12005KT P6SM SCT030 BKN100 FM221300 15011KT P6SM SCT030 BKN050
KOPF 
10nm NE 
220252Z 2203/2224 12005KT P6SM SCT025 BKN100 FM221300 15011KT P6SM SCT030 BKN050
KHST 
19nm S 
220300Z 2203/2309 12006KT 9999 SCT020 SCT040 BKN200 QNH3001INS BECMG 2215/2216 17010G15KT 9999 SCT025 BKN040 BKN180 QNH3002INS BECMG 2223/2224 16007KT 9999 NSW SCT025 BKN200 QNH3002INS TX33/2219Z TN26/2209Z
NOTAMs
Click for the latest NOTAMs
NOTAMs are issued by the DoD/FAA and will open in a separate window not controlled by AirNav.

 

 
 

Would you like to see your business listed on this page?

 If your business provides an interesting product or service to pilots, flight crews, aircraft, or users of the District VI Heliport, you should consider listing it here.  To start the listing process, click on the button below
 
Add a business
 

Other Pages about District VI Heliport

Update a link
 
Copyright © AirNav, LLC. All rights reserved. Privacy Policy  Contact